Time;durP1;ratioP1;P1;durP2;ratioP2;P2;SDS_P1;SDS_P2;PMS_P1;PMS_P2;Temp;Humidity;BMP_temperature;BMP_pressure;BME280_temperature;BME280_humidity;BME280_pressure;Samples;Min_cycle;Max_cycle;Signal;HPM_P1;HPM_P2
2021/12/07 00:00:35;;;;;;;9.00;3.20;;;;;;;-3.02;73.07;99930.24;99807;1343;74388;-67
2021/12/07 00:03:24;;;;;;;9.30;3.90;;;;;;;-3.06;73.87;99924.45;99792;1336;68815;-67
2021/12/07 00:06:13;;;;;;;10.40;4.10;;;;;;;-3.09;74.19;99923.30;99740;1340;72947;-69
2021/12/07 00:09:07;;;;;;;11.50;4.30;;;;;;;-3.11;74.32;99921.77;99845;1336;59663;-70
2021/12/07 00:11:56;;;;;;;8.80;3.80;;;;;;;-3.17;74.59;99919.69;100042;1339;60430;-65
2021/12/07 00:14:45;;;;;;;10.10;4.30;;;;;;;-3.21;74.87;99921.32;100095;1336;74164;-65
2021/12/07 00:17:34;;;;;;;10.80;4.10;;;;;;;-3.25;75.66;99920.71;99823;1340;68199;-65
2021/12/07 00:20:25;;;;;;;14.40;4.80;;;;;;;-3.27;76.23;99923.38;99042;1344;1003097;-68
2021/12/07 00:23:16;;;;;;;12.20;5.40;;;;;;;-3.33;76.32;99919.86;99694;1337;59840;-67
2021/12/07 00:26:05;;;;;;;12.20;5.50;;;;;;;-3.34;76.86;99916.60;99918;1340;59640;-69
2021/12/07 00:28:53;;;;;;;13.20;4.70;;;;;;;-3.34;76.60;99912.59;99841;1340;74954;-67
2021/12/07 00:31:57;;;;;;;11.30;4.40;;;;;;;-3.36;76.63;99911.45;99772;1340;68531;-63
2021/12/07 00:35:13;;;;;;;10.80;4.30;;;;;;;-3.34;77.04;99913.30;99821;1343;73583;-67
2021/12/07 00:38:11;;;;;;;10.50;4.50;;;;;;;-3.35;76.53;99915.41;99158;1342;1003366;-65
2021/12/07 00:41:01;;;;;;;10.20;4.30;;;;;;;-3.40;76.99;99917.23;100009;1337;61941;-67
2021/12/07 00:43:50;;;;;;;11.40;4.60;;;;;;;-3.47;76.95;99912.04;100076;1340;72469;-66
2021/12/07 00:46:39;;;;;;;10.70;4.30;;;;;;;-3.45;76.96;99917.01;100390;1342;68984;-67
2021/12/07 00:49:27;;;;;;;11.60;3.90;;;;;;;-3.48;77.32;99913.95;100448;1340;71477;-67
2021/12/07 00:52:16;;;;;;;11.20;5.70;;;;;;;-3.48;77.32;99917.59;100283;1337;60173;-67
2021/12/07 00:55:14;;;;;;;11.80;5.60;;;;;;;-3.50;77.88;99915.39;100102;1337;60930;-69
2021/12/07 00:58:13;;;;;;;12.30;5.30;;;;;;;-3.51;78.01;99914.53;99863;1343;71503;-67
2021/12/07 01:01:15;;;;;;;13.10;5.70;;;;;;;-3.49;78.72;99916.94;99989;1340;66441;-66
2021/12/07 01:04:05;;;;;;;12.20;5.50;;;;;;;-3.46;78.85;99917.04;99932;1340;72605;-67
2021/12/07 01:25:23;;;;;;;15.50;6.90;;;;;;;-3.72;82.24;99921.79;99832;1340;61063;-67
2021/12/07 01:28:22;;;;;;;17.90;7.80;;;;;;;-3.77;82.47;99917.02;99954;1337;72988;-67
2021/12/07 02:01:06;;;;;;;13.80;6.00;;;;;;;-4.05;85.02;99908.75;99618;1344;69565;-66
2021/12/07 02:03:55;;;;;;;17.70;8.80;;;;;;;-4.12;85.17;99907.33;99999;1342;74068;-65
2021/12/07 02:06:44;;;;;;;14.40;6.40;;;;;;;-4.17;85.37;99904.13;99892;1336;59843;-66
2021/12/07 02:09:37;;;;;;;15.60;7.40;;;;;;;-4.20;85.24;99895.55;99856;1339;60150;-69
2021/12/07 02:12:27;;;;;;;18.50;8.60;;;;;;;-4.23;85.23;99894.23;99929;1342;72554;-66
2021/12/07 02:15:25;;;;;;;15.00;6.60;;;;;;;-4.25;85.42;99894.42;99052;1342;1003031;-65
2021/12/07 02:18:16;;;;;;;16.70;7.60;;;;;;;-4.24;85.20;99893.38;100171;1336;74610;-67
2021/12/07 02:21:26;;;;;;;19.50;8.30;;;;;;;-4.24;85.40;99896.13;99903;1342;60146;-65
2021/12/07 02:24:20;;;;;;;20.50;9.30;;;;;;;-4.24;85.16;99896.65;100192;1343;62262;-67
2021/12/07 02:27:08;;;;;;;18.60;8.40;;;;;;;-4.21;85.46;99898.69;99723;1339;73827;-65
2021/12/07 02:29:57;;;;;;;20.50;8.40;;;;;;;-4.21;85.38;99902.14;99597;1340;66050;-66
2021/12/07 02:32:47;;;;;;;18.70;8.80;;;;;;;-4.20;85.03;99897.62;99686;1344;71610;-67
2021/12/07 02:35:39;;;;;;;16.30;7.30;;;;;;;-4.16;85.02;99893.54;99844;1336;59819;-66
2021/12/07 02:38:27;;;;;;;17.70;7.50;;;;;;;-4.08;85.53;99893.91;99840;1336;60955;-67
2021/12/07 02:41:19;;;;;;;16.30;7.70;;;;;;;-4.04;85.23;99888.98;99152;1339;1003538;-65
2021/12/07 02:44:08;;;;;;;17.40;7.90;;;;;;;-4.01;85.17;99888.39;99764;1345;68705;-65
2021/12/07 02:46:57;;;;;;;14.80;7.50;;;;;;;-4.00;84.91;99884.21;99829;1336;73595;-67
2021/12/07 02:49:46;;;;;;;15.60;7.30;;;;;;;-3.99;84.68;99883.48;99638;1342;59811;-66
2021/12/07 02:52:36;;;;;;;16.90;8.10;;;;;;;-4.00;85.01;99878.84;99735;1344;60674;-65
2021/12/07 02:55:25;;;;;;;17.60;8.80;;;;;;;-4.01;84.69;99876.09;99737;1344;71858;-65
2021/12/07 02:58:13;;;;;;;23.40;11.50;;;;;;;-4.03;85.16;99873.52;99943;1343;68625;-67
2021/12/07 03:01:11;;;;;;;28.00;13.20;;;;;;;-4.02;84.97;99880.27;100020;1343;74724;-66
2021/12/07 03:04:11;;;;;;;23.90;12.30;;;;;;;-3.98;85.04;99884.34;99978;1343;59845;-67
2021/12/07 03:08:16;;;;;;;18.30;9.80;;;;;;;-3.95;85.19;99894.15;99885;1336;62603;-69
2021/12/07 03:28:49;;;;;;;20.00;8.90;;;;;;;-4.15;85.99;99911.54;100038;1343;67599;-68
2021/12/07 03:31:39;;;;;;;20.80;9.70;;;;;;;-4.15;86.14;99913.61;99080;1343;1003542;-66
2021/12/07 03:34:28;;;;;;;21.60;11.10;;;;;;;-4.15;86.04;99912.58;99761;1336;61269;-68
2021/12/07 03:37:16;;;;;;;27.00;12.90;;;;;;;-4.13;85.83;99917.56;100059;1342;59755;-66
2021/12/07 03:40:06;;;;;;;23.30;11.60;;;;;;;-4.14;85.47;99920.88;99675;1342;72813;-66
2021/12/07 03:42:54;;;;;;;22.90;10.80;;;;;;;-4.22;85.33;99918.79;99881;1337;67938;-67
2021/12/07 03:45:43;;;;;;;20.10;9.70;;;;;;;-4.30;85.17;99918.06;99957;1342;73508;-67
2021/12/07 03:48:32;;;;;;;17.70;7.50;;;;;;;-4.37;84.89;99916.83;99730;1340;60506;-65
2021/12/07 03:51:21;;;;;;;15.90;7.30;;;;;;;-4.47;84.78;99926.02;100240;1336;59809;-67
2021/12/07 03:54:09;;;;;;;17.10;8.70;;;;;;;-4.55;84.94;99933.60;100338;1337;74027;-67
2021/12/07 03:56:59;;;;;;;15.20;7.90;;;;;;;-4.62;85.51;99933.38;99158;1343;1003520;-67
2021/12/07 03:59:49;;;;;;;16.70;8.40;;;;;;;-4.68;85.39;99928.13;99854;1343;73756;-69
2021/12/07 04:02:40;;;;;;;17.50;8.20;;;;;;;-4.72;85.52;99924.02;99892;1343;61508;-65
2021/12/07 04:05:32;;;;;;;17.20;8.10;;;;;;;-4.73;85.49;99918.70;99731;1339;60717;-69
2021/12/07 04:08:27;;;;;;;16.40;7.40;;;;;;;-4.70;85.41;99923.64;100089;1336;73695;-68
2021/12/07 04:11:17;;;;;;;12.20;5.60;;;;;;;-4.71;84.29;99919.86;100066;1340;67960;-67
2021/12/07 04:14:06;;;;;;;11.60;5.10;;;;;;;-4.75;84.12;99919.05;99756;1343;72895;-67
2021/12/07 04:16:55;;;;;;;12.30;5.80;;;;;;;-4.76;84.24;99922.20;100043;1342;59744;-65
2021/12/07 04:19:44;;;;;;;12.40;5.80;;;;;;;-4.79;84.22;99923.63;99681;1340;62025;-67
2021/12/07 04:22:32;;;;;;;11.30;4.90;;;;;;;-4.78;84.18;99925.70;100023;1336;73766;-67
2021/12/07 04:25:23;;;;;;;11.20;5.20;;;;;;;-4.80;84.31;99930.05;100040;1342;68843;-66
2021/12/07 04:28:12;;;;;;;13.70;6.20;;;;;;;-4.79;84.08;99938.86;99994;1342;73584;-68
2021/12/07 04:31:00;;;;;;;12.90;5.40;;;;;;;-4.82;84.25;99940.30;100196;1341;59755;-66
2021/12/07 04:33:48;;;;;;;11.90;5.50;;;;;;;-4.85;83.98;99940.87;99842;1342;62302;-66
2021/12/07 04:36:36;;;;;;;9.50;3.90;;;;;;;-4.89;83.72;99944.75;99704;1339;74908;-65
2021/12/07 04:39:24;;;;;;;12.30;5.60;;;;;;;-4.95;83.66;99950.38;100010;1343;68775;-65
2021/12/07 04:42:12;;;;;;;10.50;4.20;;;;;;;-4.98;84.00;99959.23;99505;1336;1003298;-66
2021/12/07 04:45:04;;;;;;;11.70;4.90;;;;;;;-5.01;83.92;99961.38;100160;1343;59935;-66
2021/12/07 05:00:25;;;;;;;10.10;5.00;;;;;;;-5.16;83.95;99968.17;99970;1343;59999;-65
2021/12/07 05:03:15;;;;;;;10.90;4.70;;;;;;;-5.19;83.69;99972.72;99780;1343;60619;-65
2021/12/07 05:06:06;;;;;;;9.80;4.10;;;;;;;-5.21;84.04;99974.13;98684;1343;1003144;-67
2021/12/07 05:09:05;;;;;;;9.40;4.40;;;;;;;-5.21;83.92;99980.53;99580;1343;68838;-67
2021/12/07 05:15:01;;;;;;;10.60;5.10;;;;;;;-5.30;83.48;99982.39;99866;1336;59783;-66
2021/12/07 05:18:03;;;;;;;11.80;5.30;;;;;;;-5.34;83.66;99982.77;99287;1343;1003200;-65
2021/12/07 05:24:04;;;;;;;9.50;4.30;;;;;;;-5.32;83.46;99977.05;100207;1343;68442;-69
2021/12/07 05:39:01;;;;;;;10.50;4.50;;;;;;;-5.31;82.97;99973.75;100220;1343;65866;-69
2021/12/07 05:41:49;;;;;;;10.30;4.00;;;;;;;-5.32;82.92;99971.85;99698;1343;73396;-69
2021/12/07 05:44:38;;;;;;;8.50;3.50;;;;;;;-5.32;82.81;99973.93;99914;1336;60097;-68
2021/12/07 05:47:26;;;;;;;9.00;4.40;;;;;;;-5.29;82.99;99971.65;99267;1336;1003008;-66
2021/12/07 05:50:21;;;;;;;11.60;4.80;;;;;;;-5.22;82.75;99975.18;99701;1336;71691;-69
2021/12/07 05:53:11;;;;;;;10.50;3.90;;;;;;;-5.16;82.11;99973.70;99948;1336;68208;-67
2021/12/07 05:56:00;;;;;;;9.10;3.80;;;;;;;-5.16;81.53;99973.36;99699;1343;73469;-67
2021/12/07 05:58:48;;;;;;;7.70;3.10;;;;;;;-5.15;80.89;99978.02;99807;1343;59815;-67
2021/12/07 06:01:36;;;;;;;10.60;3.90;;;;;;;-5.12;80.97;99975.90;99208;1336;1004266;-65
2021/12/07 06:04:25;;;;;;;8.50;3.20;;;;;;;-5.14;80.51;99980.95;99909;1336;73880;-67
2021/12/07 06:07:13;;;;;;;9.40;3.50;;;;;;;-5.17;80.46;99981.33;99899;1343;68641;-67
2021/12/07 06:10:01;;;;;;;8.60;3.90;;;;;;;-5.18;80.23;99981.02;99491;1337;1003126;-67
2021/12/07 06:12:50;;;;;;;10.50;3.80;;;;;;;-5.25;80.72;99981.11;100075;1340;59835;-69
2021/12/07 06:15:42;;;;;;;8.60;3.30;;;;;;;-5.26;81.10;99981.48;99972;1343;62278;-67
2021/12/07 06:18:30;;;;;;;7.80;3.20;;;;;;;-5.26;81.84;99984.23;99840;1343;74976;-67
2021/12/07 06:21:19;;;;;;;8.70;3.70;;;;;;;-5.27;81.21;99982.68;99126;1340;1003571;-69
2021/12/07 06:24:07;;;;;;;8.50;3.60;;;;;;;-5.31;80.85;99981.89;99901;1337;73825;-67
2021/12/07 06:26:55;;;;;;;10.10;3.80;;;;;;;-5.34;80.83;99980.54;99917;1343;59728;-69
2021/12/07 06:29:44;;;;;;;9.30;3.70;;;;;;;-5.33;81.22;99980.69;99817;1336;59707;-66
2021/12/07 06:32:32;;;;;;;9.50;3.90;;;;;;;-5.28;81.69;99987.38;99874;1339;73237;-66
2021/12/07 06:35:20;;;;;;;8.80;3.40;;;;;;;-5.25;81.12;99985.95;99614;1343;67777;-66
2021/12/07 06:38:09;;;;;;;9.80;4.10;;;;;;;-5.26;81.35;99991.33;99680;1343;73475;-68
2021/12/07 06:41:01;;;;;;;7.60;2.80;;;;;;;-5.29;81.10;99994.48;99762;1343;59799;-66
2021/12/07 06:43:49;;;;;;;9.80;4.30;;;;;;;-5.36;81.04;99993.54;99764;1342;60308;-67
2021/12/07 06:46:37;;;;;;;9.90;3.40;;;;;;;-5.42;81.60;99997.59;98834;1345;1003539;-66
2021/12/07 06:49:26;;;;;;;9.70;3.90;;;;;;;-5.44;81.88;100002.13;99442;1343;65875;-67
2021/12/07 06:52:14;;;;;;;10.20;4.00;;;;;;;-5.49;81.67;100012.73;99741;1346;71525;-65
2021/12/07 06:55:06;;;;;;;10.60;4.60;;;;;;;-5.54;82.04;100006.56;99453;1343;60539;-68
2021/12/07 06:57:54;;;;;;;9.60;4.20;;;;;;;-5.55;82.21;100009.52;99408;1342;60405;-67
2021/12/07 07:00:43;;;;;;;10.50;4.40;;;;;;;-5.58;82.35;100015.62;99749;1345;73353;-67
2021/12/07 07:03:31;;;;;;;9.60;4.20;;;;;;;-5.61;82.76;100010.98;99507;1343;68603;-65
2021/12/07 07:06:21;;;;;;;14.00;4.40;;;;;;;-5.63;82.94;100013.60;99129;1346;1003429;-67
2021/12/07 07:09:12;;;;;;;7.40;3.70;;;;;;;-5.61;82.92;100014.78;99848;1346;59860;-69
2021/12/07 07:12:00;;;;;;;10.60;5.00;;;;;;;-5.58;82.89;100022.88;99647;1342;60676;-69
2021/12/07 07:14:48;;;;;;;11.60;4.50;;;;;;;-5.59;83.01;100027.91;100028;1342;72452;-69
2021/12/07 07:17:38;;;;;;;13.30;5.30;;;;;;;-5.59;82.94;100028.58;99913;1339;67015;-68
2021/12/07 07:20:27;;;;;;;11.20;5.40;;;;;;;-5.56;82.86;100033.23;99928;1337;74512;-69
2021/12/07 07:23:15;;;;;;;10.90;4.80;;;;;;;-5.55;82.92;100038.39;100095;1342;59769;-66
2021/12/07 07:26:05;;;;;;;10.00;4.70;;;;;;;-5.51;83.10;100042.84;99238;1339;1003751;-67
2021/12/07 07:28:53;;;;;;;8.80;4.10;;;;;;;-5.44;82.92;100050.70;99840;1340;73925;-66
2021/12/07 07:31:41;;;;;;;8.80;4.30;;;;;;;-5.38;83.05;100046.31;99595;1339;68201;-65
2021/12/07 07:34:30;;;;;;;9.70;4.40;;;;;;;-5.33;82.74;100049.88;99137;1340;1003155;-67
2021/12/07 07:37:18;;;;;;;10.10;4.40;;;;;;;-5.25;82.57;100048.21;99809;1337;60182;-65
2021/12/07 07:40:14;;;;;;;10.40;4.60;;;;;;;-5.20;82.33;100053.35;100346;1336;62286;-67
2021/12/07 07:43:02;;;;;;;9.80;4.60;;;;;;;-5.17;82.03;100054.01;99101;1337;1003106;-68
2021/12/07 07:45:59;;;;;;;9.80;4.60;;;;;;;-5.16;81.61;100057.11;99032;1344;1003482;-67
2021/12/07 07:48:49;;;;;;;9.30;4.30;;;;;;;-5.17;81.89;100054.00;99872;1336;72042;-69
2021/12/07 07:51:38;;;;;;;11.70;5.40;;;;;;;-5.14;81.92;100050.16;99783;1336;61376;-67
2021/12/07 07:54:28;;;;;;;11.10;4.60;;;;;;;-5.08;81.88;100050.23;99198;1340;1003638;-66
2021/12/07 07:57:16;;;;;;;12.50;4.70;;;;;;;-4.98;81.70;100053.39;100123;1340;74049;-66
2021/12/07 08:00:11;;;;;;;10.00;4.70;;;;;;;-4.89;80.59;100062.95;98970;1340;1003391;-68
2021/12/07 08:02:59;;;;;;;9.30;4.40;;;;;;;-4.86;80.26;100062.92;99713;1336;71839;-67
2021/12/07 08:05:47;;;;;;;12.00;4.70;;;;;;;-4.78;80.16;100065.92;99801;1337;59702;-68
2021/12/07 08:08:37;;;;;;;10.10;3.90;;;;;;;-4.71;79.33;100066.85;99215;1344;1003245;-66
2021/12/07 08:11:26;;;;;;;10.30;4.00;;;;;;;-4.59;79.49;100066.85;99968;1336;74903;-67
2021/12/07 08:14:17;;;;;;;8.90;3.80;;;;;;;-4.53;78.31;100068.30;99544;1340;1003313;-66
2021/12/07 08:17:05;;;;;;;8.90;4.30;;;;;;;-4.37;79.29;100070.48;99210;1340;1003060;-68
2021/12/07 08:19:54;;;;;;;10.10;4.70;;;;;;;-3.52;78.02;100069.30;99763;1337;60132;-66
2021/12/07 08:22:42;;;;;;;9.70;4.10;;;;;;;-2.50;75.26;100062.76;99213;1336;1003883;-68
2021/12/07 08:25:37;;;;;;;10.60;4.00;;;;;;;-1.88;72.76;100057.71;99590;1339;72411;-69
2021/12/07 08:28:25;;;;;;;9.40;3.90;;;;;;;-1.72;70.73;100058.67;100092;1336;67614;-68
2021/12/07 08:31:14;;;;;;;8.50;3.70;;;;;;;-1.60;70.87;100056.27;99707;1339;74423;-68
2021/12/07 08:34:02;;;;;;;10.30;4.70;;;;;;;-0.61;69.97;100058.73;99687;1339;59844;-67
2021/12/07 08:36:50;;;;;;;9.80;4.50;;;;;;;0.63;64.39;100058.35;99785;1339;60055;-69
2021/12/07 08:39:38;;;;;;;10.50;4.10;;;;;;;1.44;62.03;100051.80;100339;1336;70796;-69
2021/12/07 08:42:27;;;;;;;8.50;4.00;;;;;;;1.29;61.00;100047.65;99996;1340;69667;-69
2021/12/07 08:45:17;;;;;;;8.90;3.80;;;;;;;0.67;60.66;100044.09;100134;1336;73336;-69
2021/12/07 08:48:06;;;;;;;9.20;4.20;;;;;;;-0.06;61.71;100048.41;99746;1336;59860;-69
2021/12/07 08:50:56;;;;;;;11.10;4.40;;;;;;;0.30;63.34;100047.50;99981;1336;60459;-68
2021/12/07 08:53:52;;;;;;;8.60;3.90;;;;;;;1.76;60.71;100040.14;100006;1342;74900;-72
2021/12/07 08:59:48;;;;;;;15.00;5.30;;;;;;;2.29;56.20;100043.87;100257;1336;71754;-67
2021/12/07 09:02:36;;;;;;;10.30;4.10;;;;;;;1.64;57.59;100045.91;99802;1336;59879;-68
2021/12/07 09:05:27;;;;;;;10.80;3.90;;;;;;;2.81;55.34;100049.07;99796;1340;59609;-69
2021/12/07 09:08:16;;;;;;;13.70;5.40;;;;;;;3.13;53.60;100043.05;100067;1336;71832;-72
2021/12/07 09:11:05;;;;;;;17.80;5.90;;;;;;;2.96;53.87;100044.38;99714;1336;69917;-70
2021/12/07 09:13:53;;;;;;;15.10;6.10;;;;;;;2.92;52.92;100043.67;100195;1340;74179;-68
2021/12/07 09:16:44;;;;;;;20.20;7.00;;;;;;;2.97;53.17;100040.66;100193;1340;60856;-67
2021/12/07 09:19:33;;;;;;;21.40;8.30;;;;;;;2.13;54.46;100045.08;100080;1336;60602;-73
2021/12/07 09:22:21;;;;;;;13.10;4.90;;;;;;;1.48;56.23;100050.73;100232;1337;73567;-74
2021/12/07 09:25:16;;;;;;;11.00;5.40;;;;;;;0.74;58.48;100053.23;100464;1337;68341;-72
2021/12/07 09:28:05;;;;;;;18.80;7.70;;;;;;;0.33;60.58;100049.68;100089;1343;72922;-74
2021/12/07 09:30:55;;;;;;;13.10;5.00;;;;;;;-0.04;61.23;100048.52;100342;1337;59726;-73
2021/12/07 09:33:43;;;;;;;14.50;4.60;;;;;;;-0.40;62.51;100050.76;100308;1343;59641;-70
2021/12/07 09:36:33;;;;;;;8.30;3.50;;;;;;;-0.88;63.21;100046.88;100008;1346;73195;-69
2021/12/07 09:39:22;;;;;;;8.30;3.00;;;;;;;-1.35;63.45;100044.61;99974;1346;68237;-66
2021/12/07 09:42:10;;;;;;;8.90;3.10;;;;;;;-1.66;64.89;100050.17;99830;1345;74566;-70
2021/12/07 09:44:59;;;;;;;8.30;2.80;;;;;;;-1.81;66.05;100051.08;99512;1342;59629;-69
2021/12/07 09:47:48;;;;;;;11.60;3.60;;;;;;;-2.04;67.03;100049.27;99913;1342;61122;-68
2021/12/07 09:50:42;;;;;;;10.80;3.70;;;;;;;-2.27;67.64;100050.89;99002;1345;1003001;-68
2021/12/07 09:53:31;;;;;;;8.70;2.70;;;;;;;-2.52;68.15;100044.21;99598;1342;66787;-67
2021/12/07 09:56:24;;;;;;;10.10;3.30;;;;;;;-2.63;68.45;100056.97;99726;1342;73332;-69
2021/12/07 09:59:15;;;;;;;9.20;2.40;;;;;;;-2.74;69.02;100059.82;99620;1340;60313;-69
2021/12/07 10:02:06;;;;;;;6.60;2.40;;;;;;;-2.83;69.71;100064.20;99679;1345;60412;-70
2021/12/07 10:04:55;;;;;;;7.40;2.50;;;;;;;-2.32;70.03;100062.13;99649;1343;73344;-70
2021/12/07 10:07:48;;;;;;;8.00;2.50;;;;;;;-2.09;67.91;100060.52;99053;1340;1003556;-66
2021/12/07 10:10:55;;;;;;;8.30;3.00;;;;;;;-2.08;68.33;100058.05;100066;1340;73525;-66
2021/12/07 10:13:47;;;;;;;7.10;2.60;;;;;;;-1.70;68.10;100055.67;99999;1340;59816;-69
2021/12/07 10:16:43;;;;;;;8.20;2.50;;;;;;;-1.46;67.51;100054.15;100149;1336;61016;-68
2021/12/07 10:19:35;;;;;;;6.80;2.40;;;;;;;-1.10;65.43;100050.48;100074;1342;71516;-68
2021/12/07 10:22:24;;;;;;;8.00;2.50;;;;;;;-1.33;65.45;100056.72;100199;1336;66922;-68
2021/12/07 10:25:25;;;;;;;8.30;2.20;;;;;;;-1.64;66.23;100058.80;100088;1337;74422;-68
2021/12/07 10:28:43;;;;;;;7.80;2.40;;;;;;;-1.95;66.91;100062.06;100059;1337;59722;-69
2021/12/07 10:31:46;;;;;;;6.10;2.20;;;;;;;-2.18;67.62;100061.60;99020;1339;1003462;-67
2021/12/07 10:34:40;;;;;;;6.40;2.10;;;;;;;-2.26;68.18;100068.23;99853;1340;74749;-67
2021/12/07 10:37:29;;;;;;;7.20;2.70;;;;;;;-2.32;69.18;100067.70;100093;1339;68081;-67
2021/12/07 10:40:16;;;;;;;8.20;2.50;;;;;;;-2.40;69.71;100069.63;99286;1337;1003459;-68
2021/12/07 10:43:04;;;;;;;8.60;2.90;;;;;;;-2.43;69.73;100067.96;99773;1336;59821;-69
2021/12/07 10:45:53;;;;;;;8.50;2.70;;;;;;;-1.86;68.51;100058.88;99985;1336;60453;-66
2021/12/07 10:48:41;;;;;;;6.30;2.00;;;;;;;-1.59;67.75;100057.97;99752;1339;74005;-70
2021/12/07 10:51:29;;;;;;;6.90;2.70;;;;;;;-1.50;67.99;100050.77;100264;1336;67894;-68
2021/12/07 10:54:22;;;;;;;7.50;2.90;;;;;;;-1.15;66.95;100041.05;99793;1337;71648;-66
2021/12/07 10:57:23;;;;;;;7.00;3.10;;;;;;;-0.90;66.05;100045.35;100081;1337;59888;-66
2021/12/07 11:00:28;;;;;;;6.90;2.90;;;;;;;-0.11;63.46;100041.23;100516;1340;62276;-68
2021/12/07 11:03:25;;;;;;;7.00;2.70;;;;;;;-0.37;62.73;100038.09;100213;1337;75234;-70
2021/12/07 11:06:13;;;;;;;6.60;2.50;;;;;;;-0.04;61.88;100042.92;100218;1336;68837;-68
2021/12/07 11:09:06;;;;;;;8.20;2.80;;;;;;;0.55;61.37;100038.59;99895;1336;71120;-67
2021/12/07 11:12:17;;;;;;;10.30;3.40;;;;;;;0.52;60.98;100035.56;99864;1340;59873;-68
2021/12/07 11:15:13;;;;;;;10.50;3.90;;;;;;;0.29;61.52;100040.58;100008;1340;61841;-69
2021/12/07 11:18:09;;;;;;;9.90;2.90;;;;;;;-0.05;61.71;100042.09;99781;1336;74931;-66
2021/12/07 11:21:07;;;;;;;8.80;3.00;;;;;;;-0.22;62.41;100041.64;99236;1337;1005698;-70
2021/12/07 11:23:58;;;;;;;9.20;2.50;;;;;;;-0.15;62.92;100038.77;101141;1337;71799;-69
2021/12/07 11:30:01;;;;;;;6.70;2.90;;;;;;;-0.10;62.31;100033.17;99460;1339;1002389;-67
2021/12/07 11:32:56;;;;;;;10.50;3.40;;;;;;;-0.19;62.41;100039.78;99973;1340;74091;-68
2021/12/07 11:35:44;;;;;;;8.70;3.10;;;;;;;0.18;62.22;100034.83;100087;1337;68884;-65
2021/12/07 11:38:37;;;;;;;9.10;3.40;;;;;;;0.13;61.64;100037.80;99734;1340;72825;-65
2021/12/07 11:41:32;;;;;;;7.80;3.00;;;;;;;0.49;60.70;100035.84;100069;1343;59927;-68
2021/12/07 11:44:22;;;;;;;9.60;3.00;;;;;;;0.29;60.82;100035.16;100135;1337;59818;-67
2021/12/07 11:47:09;;;;;;;7.70;2.80;;;;;;;0.51;60.58;100032.63;100206;1337;73059;-68
2021/12/07 11:50:10;;;;;;;7.00;2.80;;;;;;;0.93;59.58;100030.17;99109;1340;1003736;-68
2021/12/07 11:53:06;;;;;;;9.30;3.20;;;;;;;0.96;60.04;100031.63;100043;1343;72019;-68
2021/12/07 11:55:56;;;;;;;7.50;2.80;;;;;;;1.56;59.34;100028.23;99851;1336;60066;-69
2021/12/07 11:58:44;;;;;;;9.30;3.10;;;;;;;1.78;56.55;100025.05;99705;1340;61063;-69
2021/12/07 12:01:53;;;;;;;6.50;2.90;;;;;;;2.05;55.99;100022.66;100057;1336;74509;-65
2021/12/07 12:04:42;;;;;;;7.60;2.80;;;;;;;2.41;54.55;100016.89;99810;1339;68109;-67
2021/12/07 12:07:30;;;;;;;8.40;2.80;;;;;;;2.45;53.55;100023.56;100174;1337;71671;-66
2021/12/07 12:10:21;;;;;;;6.70;2.40;;;;;;;2.26;53.28;100022.13;100023;1343;59776;-66
2021/12/07 12:13:25;;;;;;;7.10;2.70;;;;;;;2.06;53.46;100021.08;99995;1337;59800;-67
2021/12/07 12:16:37;;;;;;;7.80;2.80;;;;;;;1.99;54.39;100020.80;99638;1340;73912;-68
2021/12/07 12:20:03;;;;;;;7.60;2.80;;;;;;;1.99;54.77;100016.10;99803;1340;69092;-68
2021/12/07 12:23:33;;;;;;;12.70;4.00;;;;;;;1.96;54.94;100023.77;99976;1336;73544;-69
2021/12/07 12:26:25;;;;;;;10.70;3.70;;;;;;;1.98;54.58;100024.54;100053;1335;59685;-70
2021/12/07 12:29:17;;;;;;;8.40;3.30;;;;;;;1.78;54.91;100029.59;100308;1340;61780;-70
2021/12/07 12:32:08;;;;;;;8.30;2.90;;;;;;;1.31;55.41;100026.27;100307;1336;73989;-71
2021/12/07 12:34:57;;;;;;;8.00;2.90;;;;;;;0.65;56.48;100025.65;100241;1336;67294;-69
2021/12/07 12:37:48;;;;;;;8.30;3.40;;;;;;;0.10;58.24;100015.94;100057;1337;74652;-68
2021/12/07 12:40:37;;;;;;;9.60;3.20;;;;;;;-0.45;59.97;100013.09;100038;1337;59809;-68
2021/12/07 12:44:09;;;;;;;9.90;3.30;;;;;;;-0.90;61.53;100007.21;99936;1342;60624;-68
2021/12/07 12:46:59;;;;;;;7.80;2.90;;;;;;;-1.59;63.44;100003.51;100251;1342;74359;-69
2021/12/07 12:49:47;;;;;;;7.40;2.50;;;;;;;-2.12;65.27;100005.83;99943;1340;66659;-70
2021/12/07 12:52:48;;;;;;;8.70;2.80;;;;;;;-2.45;66.70;100006.16;99884;1337;73077;-70
2021/12/07 12:55:43;;;;;;;7.00;2.40;;;;;;;-2.75;68.05;100004.78;99998;1337;59853;-69
2021/12/07 12:58:33;;;;;;;6.90;2.90;;;;;;;-3.00;69.36;100007.13;100105;1337;60990;-67
2021/12/07 13:01:43;;;;;;;6.70;2.20;;;;;;;-3.21;70.18;100001.67;99445;1336;1003282;-70
2021/12/07 13:04:34;;;;;;;8.10;2.40;;;;;;;-3.41;71.17;100001.77;100270;1337;68494;-69
2021/12/07 13:07:27;;;;;;;6.60;2.60;;;;;;;-3.63;71.79;99999.44;99798;1336;73528;-68
2021/12/07 13:10:15;;;;;;;8.00;3.00;;;;;;;-3.74;72.48;100000.88;99283;1340;1003187;-68
2021/12/07 13:13:47;;;;;;;7.30;2.50;;;;;;;-3.85;73.50;99998.33;99879;1340;60753;-66
2021/12/07 13:16:36;;;;;;;6.50;2.50;;;;;;;-3.99;73.83;100002.58;100402;1336;73576;-66
2021/12/07 13:19:24;;;;;;;7.60;2.60;;;;;;;-4.06;74.06;100004.11;100046;1336;66442;-69
2021/12/07 13:22:17;;;;;;;7.50;2.40;;;;;;;-4.08;74.18;99999.45;99182;1340;1002600;-67
2021/12/07 13:25:18;;;;;;;6.90;2.50;;;;;;;-4.13;73.21;99996.60;99948;1340;59839;-68
2021/12/07 13:28:11;;;;;;;6.10;2.10;;;;;;;-4.19;72.21;100004.51;99165;1337;1003023;-70
2021/12/07 13:31:09;;;;;;;7.40;2.40;;;;;;;-4.24;71.83;100015.69;99600;1336;1014668;-68
2021/12/07 13:33:57;;;;;;;6.70;2.20;;;;;;;-4.30;71.64;100023.77;99989;1340;304941;-68
2021/12/07 13:37:08;;;;;;;8.60;2.50;;;;;;;-4.36;71.67;100024.20;99946;1337;74507;-67
2021/12/07 13:39:57;;;;;;;6.40;2.20;;;;;;;-4.44;71.48;100016.72;99921;1336;60090;-68
2021/12/07 13:42:52;;;;;;;5.90;2.30;;;;;;;-4.50;71.57;100019.23;100198;1337;59656;-68
2021/12/07 13:45:40;;;;;;;6.20;2.50;;;;;;;-4.54;71.85;100021.58;99713;1340;75045;-69
2021/12/07 13:48:29;;;;;;;6.30;2.40;;;;;;;-4.60;71.76;100015.59;99075;1340;1003948;-67
2021/12/07 13:51:21;;;;;;;7.00;2.70;;;;;;;-4.65;71.12;100018.80;99761;1343;71556;-67
2021/12/07 13:54:18;;;;;;;8.30;2.80;;;;;;;-4.70;70.89;100020.27;99978;1339;59745;-66
2021/12/07 13:57:12;;;;;;;10.50;3.20;;;;;;;-4.72;70.02;100022.71;99451;1336;1002585;-68
2021/12/07 14:00:50;;;;;;;6.90;2.50;;;;;;;-4.73;68.18;100031.74;100084;1337;73968;-67
2021/12/07 14:03:44;;;;;;;7.20;2.60;;;;;;;-4.76;67.08;100035.77;100179;1337;67458;-68
2021/12/07 14:06:32;;;;;;;7.60;2.70;;;;;;;-4.80;66.47;100037.38;99197;1340;1003200;-67
2021/12/07 14:09:22;;;;;;;7.30;2.60;;;;;;;-4.85;66.06;100046.11;99603;1337;1004090;-67
2021/12/07 14:12:10;;;;;;;8.00;2.70;;;;;;;-4.92;64.97;100045.19;99918;1336;62211;-67
2021/12/07 14:15:24;;;;;;;10.70;2.60;;;;;;;-4.98;64.77;100044.40;100109;1340;74865;-65
2021/12/07 14:18:16;;;;;;;8.10;2.70;;;;;;;-5.05;64.92;100046.57;99281;1340;1003611;-67
2021/12/07 14:21:06;;;;;;;7.40;2.50;;;;;;;-5.12;64.49;100050.13;98980;1339;1003738;-67
2021/12/07 14:24:08;;;;;;;6.90;2.20;;;;;;;-5.19;63.86;100050.05;100103;1337;59825;-69
2021/12/07 14:26:56;;;;;;;6.40;2.40;;;;;;;-5.27;63.95;100050.67;100061;1336;60692;-69
2021/12/07 14:29:44;;;;;;;8.10;2.50;;;;;;;-5.32;63.64;100056.09;99428;1337;1003577;-70
2021/12/07 14:32:32;;;;;;;7.70;2.70;;;;;;;-5.40;63.54;100056.36;99366;1337;1002612;-69
2021/12/07 14:35:21;;;;;;;10.00;2.90;;;;;;;-5.46;63.71;100049.69;99911;1340;72903;-68
2021/12/07 14:38:09;;;;;;;7.20;2.80;;;;;;;-5.52;64.24;100049.61;99842;1337;59872;-68
2021/12/07 14:41:07;;;;;;;7.90;2.80;;;;;;;-5.59;64.04;100045.89;99749;1342;59685;-65
2021/12/07 14:43:56;;;;;;;8.40;2.70;;;;;;;-5.66;63.31;100053.91;100024;1337;74275;-68
2021/12/07 14:46:47;;;;;;;10.70;3.70;;;;;;;-5.72;62.92;100050.52;99649;1344;69880;-66
2021/12/07 14:49:53;;;;;;;9.00;2.80;;;;;;;-5.79;61.62;100052.33;98904;1342;1002970;-68
2021/12/07 14:52:41;;;;;;;9.10;3.30;;;;;;;-5.88;60.57;100051.73;100061;1340;59795;-67
2021/12/07 14:55:30;;;;;;;9.90;3.60;;;;;;;-5.95;60.94;100056.48;99151;1336;1002737;-70
2021/12/07 14:58:28;;;;;;;10.60;3.60;;;;;;;-6.02;60.68;100058.11;99727;1340;74742;-69